^^
Your Local Weather - Clay, NY Station Historical Data
Daily Summary for March 31, 2017 Units:  English    Metric   Both
« Previous Day
Next Day »
Daily Weekly Monthly Yearly Custom
  High: Low: Average:
Temperature: 37.6 °F 32.4 °F 35 °F
Dew Point: 35.5 °F 30.3 °F 32.9 °F
Humidity: 92% 91% 92%
Wind Speed: 7.0mph 3.0mph 4.8mph
Wind Gust: 14.0mph - -
Wind- - East
Pressure: 30.07 in 29.74 in -
Precipitation: 1.14 in    
Historical Graphs
 
 
Tabular Data for March 31, 2017
Time Temperature Dew Point Pressure Wind Wind Speed Wind Gust Humidity Rainfall Rate (Hourly) solar
00:02 32.4 °F 30.3 °F 30.07 in ENE 4.0 mph 4.0 mph 92% 0.00 in 0 W/m2
00:08 32.4 °F 30.3 °F 30.07 in NE 3.0 mph 4.0 mph 92% 0.00 in 0 W/m2
00:14 32.5 °F 30.4 °F 30.07 in NE 3.0 mph 5.0 mph 92% 0.00 in 0 W/m2
00:20 32.5 °F 30.4 °F 30.05 in ENE 4.0 mph 7.0 mph 92% 0.00 in 0 W/m2
00:26 32.5 °F 30.4 °F 30.05 in East 4.0 mph 7.0 mph 92% 0.00 in 0 W/m2
00:32 32.7 °F 30.6 °F 30.05 in East 4.0 mph 5.0 mph 92% 0.00 in 0 W/m2
00:38 32.8 °F 30.7 °F 30.04 in East 5.0 mph 5.0 mph 92% 0.00 in 0 W/m2
00:44 32.8 °F 30.7 °F 30.03 in ESE 5.0 mph 5.0 mph 92% 0.00 in 0 W/m2
00:50 32.8 °F 30.7 °F 30.02 in ESE 5.0 mph 5.0 mph 92% 0.00 in 0 W/m2
00:56 32.8 °F 30.7 °F 30.02 in ENE 5.0 mph 9.0 mph 92% 0.00 in 0 W/m2
01:02 32.9 °F 30.8 °F 30.01 in ENE 5.0 mph 5.0 mph 92% 0.00 in 0 W/m2
01:08 32.9 °F 30.8 °F 30.00 in East 5.0 mph 5.0 mph 92% 0.00 in 0 W/m2
01:14 33.0 °F 30.9 °F 30.00 in ENE 6.0 mph 6.0 mph 92% 0.00 in 0 W/m2
01:20 33.0 °F 30.9 °F 29.99 in ESE 5.0 mph 5.0 mph 92% 0.00 in 0 W/m2
01:26 33.1 °F 31.0 °F 29.99 in ENE 4.0 mph 9.0 mph 92% 0.04 in 0 W/m2
01:32 33.2 °F 31.1 °F 29.98 in ENE 5.0 mph 7.0 mph 92% 0.04 in 0 W/m2
01:38 33.3 °F 31.2 °F 29.99 in East 5.0 mph 7.0 mph 92% 0.00 in 0 W/m2
01:44 33.3 °F 31.2 °F 29.99 in ENE 5.0 mph 9.0 mph 92% 0.00 in 0 W/m2
01:50 33.4 °F 31.3 °F 29.99 in ENE 5.0 mph 5.0 mph 92% 0.00 in 0 W/m2
01:56 33.5 °F 31.2 °F 29.99 in ESE 4.0 mph 9.0 mph 91% 0.00 in 0 W/m2
02:02 33.5 °F 31.2 °F 29.98 in East 4.0 mph 6.0 mph 91% 0.04 in 0 W/m2
02:08 33.6 °F 31.3 °F 29.98 in South 5.0 mph 6.0 mph 91% 0.04 in 0 W/m2
02:14 33.5 °F 31.2 °F 29.97 in East 4.0 mph 5.0 mph 91% 0.05 in 0 W/m2
02:20 33.6 °F 31.3 °F 29.97 in ENE 4.0 mph 4.0 mph 91% 0.09 in 0 W/m2
02:26 33.6 °F 31.3 °F 29.97 in SE 5.0 mph 5.0 mph 91% 0.09 in 0 W/m2
02:32 33.6 °F 31.3 °F 29.96 in ESE 4.0 mph 7.0 mph 91% 0.05 in 0 W/m2
02:38 33.6 °F 31.3 °F 29.96 in ENE 4.0 mph 7.0 mph 91% 0.05 in 0 W/m2
02:44 33.6 °F 31.3 °F 29.95 in East 3.0 mph 8.0 mph 91% 0.05 in 0 W/m2
02:50 33.7 °F 31.4 °F 29.96 in ENE 4.0 mph 4.0 mph 91% 0.04 in 0 W/m2
02:56 33.7 °F 31.4 °F 29.95 in ESE 4.0 mph 5.0 mph 91% 0.04 in 0 W/m2
03:02 33.7 °F 31.4 °F 29.94 in East 5.0 mph 7.0 mph 91% 0.04 in 0 W/m2
03:08 33.7 °F 31.4 °F 29.94 in ESE 5.0 mph 7.0 mph 91% 0.00 in 0 W/m2
03:14 33.7 °F 31.4 °F 29.94 in SE 5.0 mph 6.0 mph 91% 0.00 in 0 W/m2
03:20 33.8 °F 31.5 °F 29.94 in ENE 4.0 mph 4.0 mph 91% 0.00 in 0 W/m2
03:26 33.9 °F 31.6 °F 29.95 in East 4.0 mph 4.0 mph 91% 0.00 in 0 W/m2
03:32 33.8 °F 31.5 °F 29.94 in East 4.0 mph 7.0 mph 91% 0.11 in 0 W/m2
03:38 33.6 °F 31.3 °F 29.94 in ESE 5.0 mph 7.0 mph 91% 0.17 in 0 W/m2
03:44 33.6 °F 31.3 °F 29.95 in ENE 4.0 mph 4.0 mph 91% 0.16 in 0 W/m2
03:50 33.5 °F 31.2 °F 29.96 in ENE 3.0 mph 3.0 mph 91% 0.15 in 0 W/m2
03:56 33.5 °F 31.2 °F 29.96 in NE 4.0 mph 7.0 mph 91% 0.23 in 0 W/m2
04:02 33.3 °F 31.0 °F 29.95 in East 4.0 mph 8.0 mph 91% 0.16 in 0 W/m2
04:08 33.2 °F 30.9 °F 29.95 in East 5.0 mph 8.0 mph 91% 0.12 in 0 W/m2
04:14 33.1 °F 30.8 °F 29.94 in East 5.0 mph 8.0 mph 91% 0.13 in 0 W/m2
04:20 33.1 °F 30.8 °F 29.94 in ENE 4.0 mph 11.0 mph 91% 0.14 in 0 W/m2
04:26 33.1 °F 31.0 °F 29.93 in NNE 5.0 mph 11.0 mph 92% 0.10 in 0 W/m2
04:32 33.1 °F 31.0 °F 29.93 in East 5.0 mph 10.0 mph 92% 0.09 in 0 W/m2
04:38 33.2 °F 31.1 °F 29.92 in ESE 6.0 mph 10.0 mph 92% 0.10 in 0 W/m2
04:44 33.2 °F 31.1 °F 29.93 in ESE 6.0 mph 6.0 mph 92% 0.05 in 0 W/m2
04:50 33.2 °F 31.1 °F 29.93 in ENE 5.0 mph 7.0 mph 92% 0.04 in 0 W/m2
04:56 33.2 °F 31.1 °F 29.93 in East 5.0 mph 14.0 mph 92% 0.04 in 0 W/m2
05:02 33.1 °F 31.0 °F 29.92 in East 5.0 mph 7.0 mph 92% 0.04 in 0 W/m2
05:08 33.1 °F 31.0 °F 29.92 in ESE 6.0 mph 11.0 mph 92% 0.00 in 0 W/m2
05:14 33.1 °F 31.0 °F 29.92 in ESE 6.0 mph 9.0 mph 92% 0.00 in 0 W/m2
05:20 33.0 °F 30.9 °F 29.92 in ENE 6.0 mph 6.0 mph 92% 0.08 in 0 W/m2
05:26 33.1 °F 31.0 °F 29.92 in ENE 5.0 mph 10.0 mph 92% 0.14 in 0 W/m2
05:32 33.0 °F 30.9 °F 29.92 in East 6.0 mph 11.0 mph 92% 0.09 in 0 W/m2
05:38 33.0 °F 30.9 °F 29.91 in ENE 7.0 mph 11.0 mph 92% 0.11 in 0 W/m2
05:44 33.0 °F 30.9 °F 29.91 in East 7.0 mph 13.0 mph 92% 0.10 in 0 W/m2
05:50 33.0 °F 30.9 °F 29.91 in East 6.0 mph 9.0 mph 92% 0.11 in 0 W/m2
05:56 33.0 °F 30.9 °F 29.91 in SE 5.0 mph 9.0 mph 92% 0.06 in 0 W/m2
06:02 33.0 °F 30.9 °F 29.91 in East 6.0 mph 11.0 mph 92% 0.06 in 0 W/m2
06:08 33.0 °F 30.9 °F 29.91 in East 6.0 mph 11.0 mph 92% 0.06 in 0 W/m2
06:14 33.0 °F 30.9 °F 29.91 in ESE 5.0 mph 7.0 mph 92% 0.06 in 0 W/m2
06:20 33.0 °F 30.9 °F 29.91 in ENE 6.0 mph 9.0 mph 92% 0.06 in 0 W/m2
06:26 33.0 °F 30.9 °F 29.91 in East 7.0 mph 14.0 mph 92% 0.08 in 0 W/m2
06:32 33.1 °F 31.0 °F 29.90 in East 7.0 mph 7.0 mph 92% 0.06 in 0 W/m2
06:38 33.1 °F 31.0 °F 29.90 in ENE 6.0 mph 7.0 mph 92% 0.04 in 0 W/m2
06:44 33.1 °F 31.0 °F 29.90 in East 6.0 mph 12.0 mph 92% 0.00 in 0 W/m2
06:50 33.2 °F 31.1 °F 29.90 in NE 6.0 mph 6.0 mph 92% 0.07 in 0 W/m2
06:56 33.2 °F 31.1 °F 29.90 in East 5.0 mph 8.0 mph 92% 0.07 in 0 W/m2
07:02 33.3 °F 31.2 °F 29.90 in East 5.0 mph 5.0 mph 92% 0.05 in 0 W/m2
07:08 33.4 °F 31.3 °F 29.90 in East 5.0 mph 6.0 mph 92% 0.05 in 0 W/m2
07:14 33.4 °F 31.3 °F 29.90 in ENE 5.0 mph 7.0 mph 92% 0.05 in 0 W/m2
07:20 33.4 °F 31.3 °F 29.90 in ESE 5.0 mph 5.0 mph 92% 0.05 in 0 W/m2
07:26 33.5 °F 31.4 °F 29.90 in East 5.0 mph 6.0 mph 92% 0.04 in 0 W/m2
07:32 33.5 °F 31.4 °F 29.89 in ENE 6.0 mph 8.0 mph 92% 0.00 in 0 W/m2
07:38 33.5 °F 31.4 °F 29.89 in NE 5.0 mph 8.0 mph 92% 0.00 in 11 W/m2
07:44 33.6 °F 31.5 °F 29.89 in ESE 5.0 mph 5.0 mph 92% 0.00 in 14 W/m2
07:50 33.6 °F 31.5 °F 29.88 in East 6.0 mph 9.0 mph 92% 0.00 in 18 W/m2
07:56 33.7 °F 31.6 °F 29.88 in East 7.0 mph 10.0 mph 92% 0.00 in 18 W/m2
08:02 33.8 °F 31.7 °F 29.89 in East 6.0 mph 10.0 mph 92% 0.00 in 16 W/m2
08:08 33.9 °F 31.8 °F 29.89 in ENE 5.0 mph 10.0 mph 92% 0.00 in 16 W/m2
08:14 34.0 °F 31.9 °F 29.89 in ESE 5.0 mph 5.0 mph 92% 0.00 in 16 W/m2
08:20 34.0 °F 31.9 °F 29.89 in ENE 5.0 mph 8.0 mph 92% 0.00 in 16 W/m2
08:26 34.0 °F 31.9 °F 29.88 in East 4.0 mph 8.0 mph 92% 0.00 in 14 W/m2
08:32 34.0 °F 31.9 °F 29.88 in SE 3.0 mph 4.0 mph 92% 0.00 in 19 W/m2
08:38 34.1 °F 32.0 °F 29.88 in ENE 4.0 mph 11.0 mph 92% 0.00 in 14 W/m2
08:44 34.2 °F 32.1 °F 29.88 in ENE 6.0 mph 6.0 mph 92% 0.00 in 12 W/m2
08:50 34.2 °F 32.1 °F 29.88 in East 5.0 mph 9.0 mph 92% 0.00 in 11 W/m2
08:56 34.4 °F 32.0 °F 29.88 in East 6.0 mph 9.0 mph 91% 0.00 in 11 W/m2
09:02 34.4 °F 32.0 °F 29.88 in East 5.0 mph 7.0 mph 91% 0.00 in 12 W/m2
09:08 34.4 °F 32.0 °F 29.88 in ENE 5.0 mph 7.0 mph 91% 0.00 in 12 W/m2
09:14 34.5 °F 32.1 °F 29.88 in East 4.0 mph 6.0 mph 91% 0.00 in 21 W/m2
09:20 34.5 °F 32.1 °F 29.88 in ESE 5.0 mph 5.0 mph 91% 0.12 in 23 W/m2
09:26 34.6 °F 32.2 °F 29.88 in East 4.0 mph 6.0 mph 91% 0.11 in 26 W/m2
09:32 34.6 °F 32.5 °F 29.88 in East 4.0 mph 5.0 mph 92% 0.08 in 32 W/m2
09:38 34.7 °F 32.6 °F 29.88 in ENE 4.0 mph 9.0 mph 92% 0.04 in 30 W/m2
09:44 34.7 °F 32.6 °F 29.88 in East 4.0 mph 7.0 mph 92% 0.04 in 33 W/m2
09:50 34.8 °F 32.7 °F 29.88 in ENE 4.0 mph 4.0 mph 92% 0.07 in 33 W/m2
09:56 34.8 °F 32.7 °F 29.88 in SE 5.0 mph 8.0 mph 92% 0.07 in 39 W/m2
10:02 34.8 °F 32.7 °F 29.88 in SE 4.0 mph 4.0 mph 92% 0.06 in 40 W/m2
10:08 34.9 °F 32.8 °F 29.88 in East 5.0 mph 5.0 mph 92% 0.08 in 46 W/m2
10:14 35.0 °F 32.9 °F 29.87 in East 5.0 mph 7.0 mph 92% 0.13 in 46 W/m2
10:20 35.0 °F 32.9 °F 29.87 in East 5.0 mph 5.0 mph 92% 0.13 in 44 W/m2
10:26 35.1 °F 33.0 °F 29.87 in East 6.0 mph 7.0 mph 92% 0.08 in 49 W/m2
10:32 35.2 °F 33.1 °F 29.86 in SE 5.0 mph 8.0 mph 92% 0.08 in 51 W/m2
10:38 35.2 °F 33.1 °F 29.86 in East 5.0 mph 8.0 mph 92% 0.13 in 56 W/m2
10:44 35.2 °F 33.1 °F 29.86 in East 5.0 mph 7.0 mph 92% 0.13 in 60 W/m2
10:50 35.3 °F 33.2 °F 29.86 in ENE 5.0 mph 5.0 mph 92% 0.08 in 60 W/m2
10:56 35.3 °F 33.2 °F 29.86 in East 5.0 mph 8.0 mph 92% 0.11 in 65 W/m2
11:00 35.4 °F 33.3 °F 29.85 in East 6.0 mph 6.0 mph 92% 0.10 in 62 W/m2
11:06 35.4 °F 33.3 °F 29.85 in ESE 5.0 mph 9.0 mph 92% 0.07 in 72 W/m2
11:12 35.6 °F 33.5 °F 29.85 in NE 6.0 mph 8.0 mph 92% 0.07 in 74 W/m2
11:18 35.8 °F 33.7 °F 29.85 in East 5.0 mph 5.0 mph 92% 0.07 in 69 W/m2
11:24 35.9 °F 33.8 °F 29.85 in NNE 3.0 mph 8.0 mph 92% 0.05 in 81 W/m2
11:30 36.0 °F 33.9 °F 29.85 in ESE 5.0 mph 8.0 mph 92% 0.00 in 86 W/m2
11:36 36.0 °F 33.9 °F 29.85 in East 5.0 mph 5.0 mph 92% 0.00 in 79 W/m2
11:42 36.2 °F 34.1 °F 29.85 in ENE 5.0 mph 7.0 mph 92% 0.00 in 102 W/m2
11:48 36.3 °F 34.2 °F 29.85 in SE 5.0 mph 5.0 mph 92% 0.00 in 100 W/m2
11:54 36.4 °F 34.3 °F 29.84 in East 5.0 mph 6.0 mph 92% 0.00 in 98 W/m2
12:00 36.5 °F 34.4 °F 29.84 in ENE 4.0 mph 4.0 mph 92% 0.00 in 91 W/m2
12:06 36.6 °F 34.5 °F 29.84 in East 4.0 mph 5.0 mph 92% 0.00 in 83 W/m2
12:12 36.6 °F 34.5 °F 29.84 in East 4.0 mph 5.0 mph 92% 0.00 in 84 W/m2
12:18 36.6 °F 34.5 °F 29.84 in East 5.0 mph 6.0 mph 92% 0.00 in 88 W/m2
12:24 36.7 °F 34.6 °F 29.83 in ENE 4.0 mph 5.0 mph 92% 0.00 in 84 W/m2
12:30 36.8 °F 34.7 °F 29.83 in ESE 3.0 mph 3.0 mph 92% 0.00 in 84 W/m2
12:36 36.8 °F 34.7 °F 29.83 in East 3.0 mph 7.0 mph 92% 0.00 in 81 W/m2
12:42 36.9 °F 34.8 °F 29.83 in ENE 4.0 mph 5.0 mph 92% 0.00 in 88 W/m2
12:48 37.0 °F 34.9 °F 29.83 in ENE 3.0 mph 5.0 mph 92% 0.00 in 90 W/m2
12:54 37.1 °F 35.0 °F 29.83 in East 3.0 mph 7.0 mph 92% 0.00 in 100 W/m2
13:00 37.1 °F 35.0 °F 29.83 in NE 4.0 mph 4.0 mph 92% 0.00 in 91 W/m2
13:06 37.3 °F 35.2 °F 29.82 in NE 4.0 mph 5.0 mph 92% 0.00 in 86 W/m2
13:12 37.3 °F 35.2 °F 29.82 in ENE 3.0 mph 10.0 mph 92% 0.00 in 90 W/m2
13:18 37.3 °F 35.2 °F 29.82 in NE 4.0 mph 10.0 mph 92% 0.00 in 84 W/m2
13:24 37.3 °F 35.2 °F 29.82 in NE 5.0 mph 12.0 mph 92% 0.00 in 79 W/m2
13:30 37.4 °F 35.3 °F 29.82 in ENE 4.0 mph 5.0 mph 92% 0.00 in 76 W/m2
13:36 37.4 °F 35.3 °F 29.82 in ENE 5.0 mph 7.0 mph 92% 0.00 in 83 W/m2
13:42 37.4 °F 35.3 °F 29.82 in East 6.0 mph 6.0 mph 92% 0.00 in 77 W/m2
13:48 37.5 °F 35.4 °F 29.82 in ENE 4.0 mph 6.0 mph 92% 0.04 in 83 W/m2
13:54 37.5 °F 35.4 °F 29.82 in ENE 3.0 mph 3.0 mph 92% 0.04 in 79 W/m2
14:00 37.5 °F 35.4 °F 29.81 in ESE 5.0 mph 5.0 mph 92% 0.05 in 90 W/m2
14:06 37.5 °F 35.4 °F 29.80 in ENE 5.0 mph 12.0 mph 92% 0.06 in 91 W/m2
14:12 37.5 °F 35.4 °F 29.80 in ENE 5.0 mph 5.0 mph 92% 0.06 in 91 W/m2
14:18 37.5 °F 35.4 °F 29.80 in ENE 5.0 mph 10.0 mph 92% 0.05 in 93 W/m2
14:24 37.6 °F 35.5 °F 29.80 in ENE 5.0 mph 8.0 mph 92% 0.05 in 79 W/m2
14:30 37.5 °F 35.4 °F 29.79 in East 6.0 mph 6.0 mph 92% 0.05 in 74 W/m2
14:36 37.6 °F 35.5 °F 29.79 in SE 5.0 mph 8.0 mph 92% 0.05 in 79 W/m2
14:42 37.5 °F 35.4 °F 29.79 in East 5.0 mph 5.0 mph 92% 0.05 in 72 W/m2
14:48 37.5 °F 35.4 °F 29.78 in NE 4.0 mph 5.0 mph 92% 0.04 in 74 W/m2
14:54 37.3 °F 35.2 °F 29.78 in ENE 5.0 mph 8.0 mph 92% 0.06 in 77 W/m2
15:00 37.3 °F 35.2 °F 29.78 in East 5.0 mph 5.0 mph 92% 0.06 in 79 W/m2
15:06 37.2 °F 35.1 °F 29.77 in NE 5.0 mph 9.0 mph 92% 0.05 in 74 W/m2
15:12 37.2 °F 35.1 °F 29.77 in ENE 5.0 mph 7.0 mph 92% 0.05 in 65 W/m2
15:18 37.2 °F 35.1 °F 29.77 in SE 5.0 mph 7.0 mph 92% 0.06 in 70 W/m2
15:24 37.1 °F 35.0 °F 29.77 in ENE 5.0 mph 12.0 mph 92% 0.06 in 69 W/m2
15:30 37.1 °F 35.0 °F 29.76 in East 6.0 mph 6.0 mph 92% 0.05 in 60 W/m2
15:36 37.1 °F 35.0 °F 29.76 in SE 5.0 mph 9.0 mph 92% 0.05 in 54 W/m2
15:42 37.0 °F 34.9 °F 29.76 in ENE 6.0 mph 7.0 mph 92% 0.07 in 62 W/m2
15:48 37.1 °F 35.0 °F 29.76 in ENE 5.0 mph 7.0 mph 92% 0.06 in 58 W/m2
15:54 37.1 °F 35.0 °F 29.76 in East 5.0 mph 9.0 mph 92% 0.06 in 54 W/m2
16:00 37.1 °F 35.0 °F 29.76 in East 5.0 mph 7.0 mph 92% 0.07 in 54 W/m2
16:06 37.0 °F 34.9 °F 29.75 in ENE 6.0 mph 9.0 mph 92% 0.05 in 56 W/m2
16:12 37.0 °F 34.9 °F 29.75 in ENE 6.0 mph 9.0 mph 92% 0.05 in 62 W/m2
16:18 37.0 °F 34.9 °F 29.75 in ENE 6.0 mph 9.0 mph 92% 0.09 in 60 W/m2
16:24 37.0 °F 34.9 °F 29.75 in ENE 5.0 mph 6.0 mph 92% 0.07 in 58 W/m2
16:30 37.0 °F 34.9 °F 29.75 in ENE 5.0 mph 7.0 mph 92% 0.07 in 56 W/m2
16:36 36.9 °F 34.8 °F 29.75 in ESE 5.0 mph 8.0 mph 92% 0.06 in 51 W/m2
16:42 36.9 °F 34.8 °F 29.75 in East 5.0 mph 6.0 mph 92% 0.06 in 58 W/m2
16:48 36.8 °F 34.7 °F 29.75 in ENE 6.0 mph 7.0 mph 92% 0.04 in 62 W/m2
16:54 36.8 °F 34.7 °F 29.75 in East 6.0 mph 6.0 mph 92% 0.04 in 46 W/m2
17:00 36.7 °F 34.6 °F 29.74 in SE 6.0 mph 6.0 mph 92% 0.06 in 39 W/m2
17:06 36.7 °F 34.6 °F 29.75 in ENE 6.0 mph 7.0 mph 92% 0.06 in 26 W/m2
17:12 36.6 °F 34.5 °F 29.75 in SSE 4.0 mph 5.0 mph 92% 0.04 in 25 W/m2
17:18 36.6 °F 34.5 °F 29.75 in SE 5.0 mph 10.0 mph 92% 0.00 in 25 W/m2
17:24 36.6 °F 34.5 °F 29.75 in ENE 5.0 mph 10.0 mph 92% 0.00 in 23 W/m2
17:30 36.5 °F 34.4 °F 29.74 in NE 5.0 mph 5.0 mph 92% 0.00 in 25 W/m2
17:36 36.5 °F 34.4 °F 29.74 in NNE 3.0 mph 5.0 mph 92% 0.00 in 25 W/m2
17:42 36.4 °F 34.3 °F 29.74 in East 4.0 mph 7.0 mph 92% 0.00 in 19 W/m2
17:48 36.4 °F 34.3 °F 29.74 in East 4.0 mph 8.0 mph 92% 0.04 in 25 W/m2
17:54 36.4 °F 34.3 °F 29.74 in East 4.0 mph 6.0 mph 92% 0.07 in 26 W/m2
18:00 36.4 °F 34.3 °F 29.74 in NE 4.0 mph 4.0 mph 92% 0.10 in 21 W/m2
18:06 36.4 °F 34.0 °F 29.74 in East 4.0 mph 6.0 mph 91% 0.09 in 16 W/m2
18:12 36.3 °F 34.2 °F 29.74 in East 5.0 mph 7.0 mph 92% 0.12 in 18 W/m2
18:18 36.3 °F 34.2 °F 29.74 in East 5.0 mph 8.0 mph 92% 0.09 in 18 W/m2
18:24 36.3 °F 34.2 °F 29.74 in SE 6.0 mph 7.0 mph 92% 0.08 in 14 W/m2
18:30 36.3 °F 34.2 °F 29.75 in NE 5.0 mph 7.0 mph 92% 0.05 in 12 W/m2
18:36 36.2 °F 34.1 °F 29.74 in NE 4.0 mph 7.0 mph 92% 0.04 in 11 W/m2
18:42 36.2 °F 34.1 °F 29.74 in ENE 5.0 mph 5.0 mph 92% 0.04 in 9 W/m2
18:48 36.1 °F 34.0 °F 29.74 in NE 5.0 mph 6.0 mph 92% 0.00 in 11 W/m2
18:54 36.1 °F 34.0 °F 29.74 in ENE 5.0 mph 8.0 mph 92% 0.00 in 9 W/m2
19:00 36.1 °F 34.0 °F 29.75 in East 5.0 mph 6.0 mph 92% 0.00 in 5 W/m2
19:06 36.1 °F 34.0 °F 29.75 in NE 5.0 mph 6.0 mph 92% 0.04 in 0 W/m2
19:12 36.1 °F 34.0 °F 29.75 in NE 5.0 mph 7.0 mph 92% 0.04 in 0 W/m2
19:18 36.0 °F 33.9 °F 29.75 in ESE 6.0 mph 7.0 mph 92% 0.04 in 0 W/m2
19:24 36.0 °F 33.9 °F 29.75 in East 5.0 mph 6.0 mph 92% 0.05 in 0 W/m2
19:30 35.9 °F 33.8 °F 29.75 in East 5.0 mph 7.0 mph 92% 0.09 in 0 W/m2
19:36 35.9 °F 33.8 °F 29.75 in East 5.0 mph 10.0 mph 92% 0.08 in 0 W/m2
19:42 35.9 °F 33.8 °F 29.75 in East 6.0 mph 7.0 mph 92% 0.08 in 0 W/m2
19:48 35.9 °F 33.8 °F 29.75 in ESE 6.0 mph 7.0 mph 92% 0.07 in 0 W/m2
19:54 35.9 °F 33.5 °F 29.75 in ENE 6.0 mph 6.0 mph 91% 0.06 in 0 W/m2
20:00 35.8 °F 33.7 °F 29.75 in East 6.0 mph 6.0 mph 92% 0.09 in 0 W/m2
20:06 35.8 °F 33.7 °F 29.76 in East 5.0 mph 9.0 mph 92% 0.07 in 0 W/m2
20:12 35.7 °F 33.6 °F 29.76 in SE 6.0 mph 10.0 mph 92% 0.07 in 0 W/m2
20:18 35.7 °F 33.6 °F 29.76 in ENE 5.0 mph 10.0 mph 92% 0.06 in 0 W/m2
20:24 35.7 °F 33.6 °F 29.76 in NNE 5.0 mph 12.0 mph 92% 0.06 in 0 W/m2
20:30 35.7 °F 33.6 °F 29.76 in ENE 5.0 mph 9.0 mph 92% 0.04 in 0 W/m2
20:36 35.7 °F 33.6 °F 29.76 in East 5.0 mph 9.0 mph 92% 0.00 in 0 W/m2
20:42 35.7 °F 33.6 °F 29.76 in NE 5.0 mph 5.0 mph 92% 0.00 in 0 W/m2
20:48 35.7 °F 33.6 °F 29.76 in ENE 6.0 mph 13.0 mph 92% 0.00 in 0 W/m2
20:54 35.6 °F 33.5 °F 29.76 in ENE 5.0 mph 7.0 mph 92% 0.00 in 0 W/m2
21:00 35.6 °F 33.5 °F 29.76 in ESE 5.0 mph 10.0 mph 92% 0.00 in 0 W/m2
21:06 35.6 °F 33.5 °F 29.77 in East 5.0 mph 10.0 mph 92% 0.00 in 0 W/m2
21:12 35.6 °F 33.5 °F 29.77 in ESE 4.0 mph 6.0 mph 92% 0.06 in 0 W/m2
21:18 35.6 °F 33.5 °F 29.77 in ENE 4.0 mph 10.0 mph 92% 0.06 in 0 W/m2
21:24 35.6 °F 33.2 °F 29.77 in East 5.0 mph 10.0 mph 91% 0.04 in 0 W/m2
21:30 35.6 °F 33.2 °F 29.77 in East 5.0 mph 5.0 mph 91% 0.00 in 0 W/m2
21:36 35.5 °F 33.4 °F 29.77 in SSE 5.0 mph 6.0 mph 92% 0.00 in 0 W/m2
21:42 35.5 °F 33.4 °F 29.77 in East 5.0 mph 5.0 mph 92% 0.00 in 0 W/m2
21:48 35.5 °F 33.4 °F 29.77 in NE 5.0 mph 8.0 mph 92% 0.00 in 0 W/m2
21:54 35.5 °F 33.4 °F 29.77 in ENE 5.0 mph 7.0 mph 92% 0.00 in 0 W/m2
22:00 35.4 °F 33.3 °F 29.77 in SE 4.0 mph 7.0 mph 92% 0.00 in 0 W/m2
22:06 35.4 °F 33.3 °F 29.77 in ESE 5.0 mph 7.0 mph 92% 0.00 in 0 W/m2
22:12 35.3 °F 33.2 °F 29.77 in ESE 5.0 mph 6.0 mph 92% 0.00 in 0 W/m2
22:18 35.2 °F 32.8 °F 29.77 in East 4.0 mph 6.0 mph 91% 0.00 in 0 W/m2
22:24 35.0 °F 32.6 °F 29.76 in NE 4.0 mph 9.0 mph 91% 0.00 in 0 W/m2
22:30 34.9 °F 32.5 °F 29.77 in East 5.0 mph 5.0 mph 91% 0.00 in 0 W/m2
22:36 34.8 °F 32.4 °F 29.76 in East 4.0 mph 8.0 mph 91% 0.05 in 0 W/m2
22:42 34.6 °F 32.2 °F 29.76 in ENE 5.0 mph 5.0 mph 91% 0.05 in 0 W/m2
22:48 34.5 °F 32.1 °F 29.76 in ESE 3.0 mph 7.0 mph 91% 0.04 in 0 W/m2
22:54 34.4 °F 32.0 °F 29.76 in ESE 4.0 mph 5.0 mph 91% 0.04 in 0 W/m2
23:00 34.4 °F 32.3 °F 29.76 in ESE 4.0 mph 4.0 mph 92% 0.04 in 0 W/m2
23:06 34.5 °F 32.4 °F 29.76 in ENE 4.0 mph 5.0 mph 92% 0.04 in 0 W/m2
23:12 34.4 °F 32.3 °F 29.76 in ENE 4.0 mph 4.0 mph 92% 0.04 in 0 W/m2
23:18 34.5 °F 32.4 °F 29.76 in NE 3.0 mph 4.0 mph 92% 0.04 in 0 W/m2
23:24 34.6 °F 32.5 °F 29.76 in East 3.0 mph 7.0 mph 92% 0.00 in 0 W/m2
23:30 34.7 °F 32.6 °F 29.76 in ENE 4.0 mph 11.0 mph 92% 0.00 in 0 W/m2
23:36 34.8 °F 32.7 °F 29.76 in ESE 4.0 mph 11.0 mph 92% 0.00 in 0 W/m2
23:42 34.8 °F 32.7 °F 29.75 in East 4.0 mph 6.0 mph 92% 0.00 in 0 W/m2
23:48 34.8 °F 32.7 °F 29.75 in ENE 4.0 mph 8.0 mph 92% 0.00 in 0 W/m2
23:54 34.8 °F 32.4 °F 29.75 in ENE 4.0 mph 5.0 mph 91% 0.00 in 0 W/m2
Country Meadow, Clay, NY, USA
Compliments of Weather Underground - 2 mb